Time;durP1;ratioP1;P1;durP2;ratioP2;P2;SDS_P1;SDS_P2;PMS_P1;PMS_P2;Temp;Humidity;BMP_temperature;BMP_pressure;BME280_temperature;BME280_humidity;BME280_pressure;Samples;Min_cycle;Max_cycle;Signal;HPM_P1;HPM_P2
2022/08/09 00:02:08;;;;;;;5.20;2.92;;;;;;;15.27;100.00;100260.38;5172002;27;20091;-52
2022/08/09 00:04:36;;;;;;;4.63;2.90;;;;;;;15.25;100.00;100272.97;5171796;27;20092;-53
2022/08/09 00:07:03;;;;;;;2.88;2.50;;;;;;;15.21;100.00;100289.50;5171648;27;20524;-53
2022/08/09 00:09:29;;;;;;;4.68;2.80;;;;;;;15.17;100.00;100304.41;5172233;27;20493;-52
2022/08/09 00:11:55;;;;;;;4.30;2.63;;;;;;;15.15;100.00;100309.50;5171766;27;20254;-52
2022/08/09 00:14:22;;;;;;;5.55;2.47;;;;;;;15.17;100.00;100307.19;5172007;27;20058;-51
2022/08/09 00:16:49;;;;;;;5.28;2.90;;;;;;;15.06;100.00;100321.59;5171584;27;20576;-52
2022/08/09 00:19:16;;;;;;;3.63;2.42;;;;;;;15.07;100.00;100325.16;5171690;27;20051;-53
2022/08/09 00:21:42;;;;;;;3.90;2.80;;;;;;;15.04;100.00;100334.16;5173846;27;20492;-50
2022/08/09 00:24:08;;;;;;;5.72;2.78;;;;;;;15.06;100.00;100337.34;5175244;27;20425;-51
2022/08/09 00:26:35;;;;;;;6.28;2.60;;;;;;;14.98;100.00;100338.38;5175186;27;20058;-50
2022/08/09 00:29:01;;;;;;;6.45;3.03;;;;;;;14.90;100.00;100350.47;5175174;27;20110;-53
2022/08/09 00:31:28;;;;;;;7.65;2.80;;;;;;;14.70;100.00;100363.50;5175086;27;20505;-50
2022/08/09 00:33:55;;;;;;;6.55;2.78;;;;;;;14.85;100.00;100368.13;5174974;27;20050;-52
2022/08/09 00:36:23;;;;;;;5.20;3.20;;;;;;;14.90;100.00;100356.00;5175082;27;20054;-50
2022/08/09 00:38:50;;;;;;;9.75;2.65;;;;;;;14.97;100.00;100354.16;5174916;27;20050;-49
2022/08/09 00:41:19;;;;;;;5.63;2.78;;;;;;;14.82;100.00;100358.59;5175237;27;20046;-52
2022/08/09 00:43:45;;;;;;;4.90;3.13;;;;;;;15.00;100.00;100353.44;5175069;27;20042;-51
2022/08/09 00:46:11;;;;;;;3.30;2.50;;;;;;;14.91;100.00;100349.31;5174978;27;20089;-50
2022/08/09 00:48:38;;;;;;;3.08;2.78;;;;;;;15.01;100.00;100337.66;5175011;27;20042;-50
2022/08/09 00:51:06;;;;;;;3.83;2.60;;;;;;;14.82;100.00;100341.25;5174863;27;20049;-49
2022/08/09 00:53:33;;;;;;;5.80;2.70;;;;;;;14.90;100.00;100351.28;5174907;27;20046;-53
2022/08/09 00:56:00;;;;;;;4.47;3.20;;;;;;;14.91;100.00;100344.56;5174799;27;20057;-50
2022/08/09 00:58:27;;;;;;;6.32;2.90;;;;;;;14.94;100.00;100360.41;5174666;27;20444;-52
2022/08/09 01:00:55;;;;;;;5.53;3.10;;;;;;;14.88;100.00;100353.59;5174605;27;20050;-51
2022/08/09 01:03:31;;;;;;;5.43;2.40;;;;;;;14.92;100.00;100364.69;5175119;27;20058;-53
2022/08/09 01:06:05;;;;;;;3.55;2.97;;;;;;;14.99;100.00;100357.34;5174342;27;20050;-49
2022/08/09 01:08:42;;;;;;;3.05;2.72;;;;;;;14.98;100.00;100344.69;5174700;27;20081;-53
2022/08/09 01:11:18;;;;;;;6.57;2.88;;;;;;;14.86;100.00;100363.38;5174523;27;20050;-49
2022/08/09 01:13:51;;;;;;;5.75;3.05;;;;;;;14.98;100.00;100354.97;5174412;27;20047;-50
2022/08/09 01:16:21;;;;;;;9.52;4.75;;;;;;;14.87;100.00;100353.97;5174431;27;20046;-52
2022/08/09 01:18:49;;;;;;;11.45;3.20;;;;;;;14.94;100.00;100359.63;5174318;27;20501;-52
2022/08/09 01:21:37;;;;;;;5.30;3.03;;;;;;;15.06;100.00;100343.69;5174415;27;20053;-51
2022/08/09 01:24:13;;;;;;;4.32;2.63;;;;;;;15.08;100.00;100337.78;5174149;27;20134;-53
2022/08/09 01:26:54;;;;;;;5.68;2.97;;;;;;;15.08;100.00;100332.25;5174389;27;20568;-50
2022/08/09 01:29:25;;;;;;;6.28;3.65;;;;;;;15.04;100.00;100351.53;5174177;27;20575;-49
2022/08/09 01:31:54;;;;;;;7.18;3.35;;;;;;;15.03;100.00;100369.28;5173625;27;20061;-50
2022/08/09 01:34:22;;;;;;;8.07;3.88;;;;;;;15.06;100.00;100374.06;5174640;27;20494;-52
2022/08/09 01:36:49;;;;;;;10.13;3.80;;;;;;;15.01;100.00;100385.41;5174236;27;20608;-49
2022/08/09 01:39:17;;;;;;;6.93;3.30;;;;;;;14.91;100.00;100399.78;5174655;27;20077;-50
2022/08/09 01:41:44;;;;;;;9.48;3.13;;;;;;;14.86;100.00;100405.63;5174248;27;20053;-50
2022/08/09 01:44:15;;;;;;;6.32;3.47;;;;;;;14.93;100.00;100405.75;5174299;27;20136;-52
2022/08/09 01:46:45;;;;;;;5.75;3.90;;;;;;;14.79;100.00;100397.16;5173867;27;20054;-51
2022/08/09 01:49:12;;;;;;;5.38;3.70;;;;;;;14.82;100.00;100399.22;5173854;27;20167;-51
2022/08/09 01:51:42;;;;;;;9.38;3.47;;;;;;;14.80;100.00;100399.59;5173779;27;20046;-49
2022/08/09 01:54:10;;;;;;;3.88;3.10;;;;;;;14.69;100.00;100406.03;5173806;27;20098;-50
2022/08/09 01:56:39;;;;;;;5.22;3.50;;;;;;;14.77;100.00;100410.56;5173845;27;20505;-51
2022/08/09 01:59:09;;;;;;;5.78;3.40;;;;;;;14.73;100.00;100409.69;5173687;27;20058;-52
2022/08/09 02:01:37;;;;;;;5.78;3.47;;;;;;;14.72;100.00;100414.38;5173974;27;20053;-50
2022/08/09 02:04:04;;;;;;;4.90;3.10;;;;;;;14.62;100.00;100409.44;5173450;27;20060;-50
2022/08/09 02:09:15;;;;;;;7.57;3.90;;;;;;;14.53;100.00;100420.72;5159923;27;20512;-53
2022/08/09 02:11:41;;;;;;;9.30;3.38;;;;;;;14.47;100.00;100424.06;5173445;27;20051;-52
2022/08/09 02:14:09;;;;;;;7.45;5.20;;;;;;;14.40;100.00;100430.25;5173530;27;20046;-52
2022/08/09 02:16:39;;;;;;;7.60;3.90;;;;;;;14.37;100.00;100436.47;5173397;27;20053;-53
2022/08/09 02:19:06;;;;;;;3.30;3.00;;;;;;;14.24;100.00;100440.50;5173764;27;20073;-53
2022/08/09 02:21:39;;;;;;;5.18;3.13;;;;;;;14.34;100.00;100435.22;5173302;27;20053;-53
2022/08/09 02:24:09;;;;;;;4.72;3.40;;;;;;;14.32;100.00;100432.00;5173469;27;20068;-50
2022/08/09 02:26:37;;;;;;;4.53;3.00;;;;;;;14.34;100.00;100435.22;5173122;27;20050;-53
2022/08/09 02:29:13;;;;;;;6.25;4.00;;;;;;;14.31;100.00;100432.38;5173682;27;20591;-52
2022/08/09 02:31:44;;;;;;;9.23;3.47;;;;;;;14.26;100.00;100438.16;5173132;27;20412;-53
2022/08/09 02:34:13;;;;;;;6.40;3.33;;;;;;;14.17;100.00;100432.06;5173086;27;20053;-52
2022/08/09 02:36:44;;;;;;;7.70;3.97;;;;;;;14.21;100.00;100433.72;5173555;27;20157;-50
2022/08/09 02:39:15;;;;;;;5.00;3.33;;;;;;;14.18;100.00;100433.66;5172988;27;20053;-53
2022/08/09 02:41:44;;;;;;;11.40;3.95;;;;;;;14.16;100.00;100431.25;5173170;27;20484;-51
2022/08/09 02:44:15;;;;;;;5.85;3.28;;;;;;;14.10;100.00;100430.72;5171958;27;20440;-52
2022/08/09 02:46:44;;;;;;;4.15;3.55;;;;;;;14.08;100.00;100440.50;5172895;27;20082;-50
2022/08/09 02:49:15;;;;;;;7.47;5.22;;;;;;;14.06;100.00;100426.28;5172857;27;20054;-52
2022/08/09 02:51:43;;;;;;;4.72;3.70;;;;;;;14.01;100.00;100424.59;5172934;27;20045;-53
2022/08/09 02:54:13;;;;;;;7.25;3.65;;;;;;;14.09;100.00;100425.56;5173000;27;20042;-52
2022/08/09 02:56:42;;;;;;;8.43;3.50;;;;;;;14.11;100.00;100421.28;5172745;27;20148;-49
2022/08/09 02:59:10;;;;;;;6.70;5.80;;;;;;;14.06;100.00;100418.00;5172971;27;20049;-50
2022/08/09 03:01:37;;;;;;;7.38;3.13;;;;;;;14.01;100.00;100412.78;5172563;27;20074;-49
2022/08/09 03:04:06;;;;;;;5.90;3.75;;;;;;;14.10;100.00;100413.38;5172852;27;20050;-49
2022/08/09 03:06:34;;;;;;;7.22;5.70;;;;;;;14.08;100.00;100423.97;5172421;27;20190;-52
2022/08/09 03:09:02;;;;;;;4.95;3.45;;;;;;;14.26;100.00;100407.81;5172823;27;20049;-50
2022/08/09 03:11:30;;;;;;;9.20;4.15;;;;;;;14.34;100.00;100426.16;5172332;27;20133;-50
2022/08/09 03:13:58;;;;;;;3.88;3.22;;;;;;;14.52;100.00;100435.66;5172690;27;20137;-50
2022/08/09 03:16:25;;;;;;;8.52;3.40;;;;;;;14.96;100.00;100440.94;5172339;27;20098;-52
2022/08/09 03:18:52;;;;;;;4.32;3.50;;;;;;;15.49;100.00;100434.81;5172489;27;20081;-50
2022/08/09 03:21:21;;;;;;;4.43;3.22;;;;;;;16.00;100.00;100388.34;5172262;27;20050;-50
2022/08/09 03:23:48;;;;;;;10.63;3.97;;;;;;;16.47;100.00;100292.91;5172584;27;20068;-50
2022/08/09 03:26:15;;;;;;;4.80;4.40;;;;;;;16.65;100.00;100153.91;5172383;27;20057;-49
2022/08/09 03:28:43;;;;;;;5.45;3.40;;;;;;;17.20;100.00;100029.28;5172274;27;20175;-50
2022/08/09 03:31:10;;;;;;;5.88;3.40;;;;;;;17.42;100.00;99877.72;5172490;27;20050;-53
2022/08/09 03:33:38;;;;;;;7.30;4.43;;;;;;;17.92;100.00;99741.84;5172200;27;20054;-52
2022/08/09 03:36:06;;;;;;;5.40;3.80;;;;;;;18.02;100.00;99569.00;5172548;27;20500;-50
2022/08/09 03:38:34;;;;;;;4.75;3.00;;;;;;;18.36;100.00;99460.16;5172187;27;20082;-53
2022/08/09 03:41:00;;;;;;;6.95;4.55;;;;;;;18.40;100.00;99363.00;5172293;27;20106;-52
2022/08/09 03:43:26;;;;;;;4.80;3.00;;;;;;;18.47;100.00;99307.38;5172077;27;20549;-51
2022/08/09 03:45:53;;;;;;;6.97;4.20;;;;;;;17.94;100.00;99426.03;5171987;27;20428;-52
2022/08/09 03:48:22;;;;;;;11.27;3.30;;;;;;;17.71;100.00;99504.19;5172048;27;20046;-50
2022/08/09 03:50:50;;;;;;;7.05;4.30;;;;;;;17.48;100.00;99600.94;5171984;27;20054;-51
2022/08/09 03:53:18;;;;;;;6.15;3.60;;;;;;;18.00;100.00;99603.91;5172227;27;20050;-53
2022/08/09 03:55:45;;;;;;;8.07;3.35;;;;;;;18.07;100.00;99481.81;5174295;27;20523;-50
2022/08/09 03:58:12;;;;;;;6.55;3.53;;;;;;;18.53;100.00;99422.34;5176163;27;20393;-53
2022/08/09 04:00:38;;;;;;;5.47;3.10;;;;;;;18.94;100.00;99252.81;5175612;27;20412;-53
2022/08/09 04:03:06;;;;;;;6.60;3.75;;;;;;;19.56;100.00;99170.03;5175887;27;20050;-50
2022/08/09 04:05:32;;;;;;;6.78;3.08;;;;;;;19.69;100.00;99075.63;5175463;27;20566;-51
2022/08/09 04:07:59;;;;;;;3.92;3.17;;;;;;;20.26;100.00;99015.16;5175800;27;20046;-53
2022/08/09 04:10:25;;;;;;;7.40;4.72;;;;;;;20.15;100.00;98976.44;5175378;27;20501;-53
2022/08/09 04:12:53;;;;;;;5.85;4.30;;;;;;;20.70;100.00;98952.44;5175531;27;20582;-53
2022/08/09 04:15:21;;;;;;;4.95;4.25;;;;;;;20.98;100.00;98950.88;5175346;27;20050;-51
2022/08/09 04:17:47;;;;;;;10.20;4.43;;;;;;;21.13;100.00;98954.06;5175448;27;20145;-53
2022/08/09 04:20:15;;;;;;;5.25;3.03;;;;;;;21.03;100.00;98947.56;5175426;27;20141;-54
2022/08/09 04:22:42;;;;;;;4.32;3.60;;;;;;;21.49;100.00;98959.41;5175263;27;20049;-53
2022/08/09 04:25:10;;;;;;;5.80;4.10;;;;;;;21.97;100.00;98970.69;5175745;27;20074;-51
2022/08/09 04:27:40;;;;;;;6.40;3.92;;;;;;;21.69;100.00;98989.88;5175378;27;20054;-52
2022/08/09 04:30:10;;;;;;;5.90;3.00;;;;;;;22.30;100.00;99027.88;5175477;27;20046;-50
2022/08/09 04:32:36;;;;;;;6.35;3.33;;;;;;;22.24;100.00;99029.66;5175078;27;20120;-51
2022/08/09 04:35:03;;;;;;;3.88;3.00;;;;;;;22.26;100.00;99051.56;5175552;27;20046;-52
2022/08/09 04:37:30;;;;;;;8.95;3.75;;;;;;;22.66;100.00;99059.44;5175342;27;20046;-54
2022/08/09 04:39:56;;;;;;;5.47;4.07;;;;;;;22.85;100.00;99089.16;5175004;27;20085;-54
2022/08/09 04:42:22;;;;;;;8.38;4.10;;;;;;;23.31;100.00;99102.81;5174864;27;20046;-51
2022/08/09 04:44:48;;;;;;;4.70;3.85;;;;;;;23.44;100.00;99095.16;5175079;27;20505;-54
2022/08/09 04:47:15;;;;;;;5.15;3.83;;;;;;;23.36;100.00;99141.38;5174970;27;20410;-54
2022/08/09 04:49:41;;;;;;;9.00;4.10;;;;;;;23.43;100.00;99169.13;5174752;27;20186;-53
2022/08/09 04:52:08;;;;;;;6.57;3.92;;;;;;;23.68;100.00;99129.09;5175249;27;20090;-55
2022/08/09 04:54:34;;;;;;;4.43;3.60;;;;;;;23.80;100.00;99133.88;5174908;27;20046;-54
2022/08/09 04:57:00;;;;;;;4.10;3.50;;;;;;;23.74;100.00;99177.66;5174517;27;20050;-54
2022/08/09 04:59:26;;;;;;;5.35;3.63;;;;;;;24.08;100.00;99162.03;5174308;27;20050;-55
2022/08/09 05:01:53;;;;;;;6.97;3.65;;;;;;;24.53;100.00;99186.00;5174957;27;20197;-55
2022/08/09 05:04:20;;;;;;;5.45;3.55;;;;;;;24.62;100.00;99203.63;5174445;27;20085;-54
2022/08/09 05:06:46;;;;;;;6.97;3.88;;;;;;;24.75;100.00;99209.13;5173720;27;20137;-56
2022/08/09 05:09:12;;;;;;;5.57;3.20;;;;;;;25.22;100.00;99255.75;5174421;27;20123;-54
2022/08/09 05:11:39;;;;;;;7.22;3.45;;;;;;;25.00;100.00;99275.44;5174283;27;20046;-54
2022/08/09 05:14:05;;;;;;;6.38;3.25;;;;;;;25.19;100.00;99250.28;5174480;27;20141;-54
2022/08/09 05:16:31;;;;;;;5.68;3.70;;;;;;;25.08;100.00;99256.31;5174512;27;20474;-54
2022/08/09 05:18:58;;;;;;;4.95;3.53;;;;;;;25.30;100.00;99245.81;5174432;27;20042;-54
2022/08/09 05:21:26;;;;;;;7.43;3.35;;;;;;;25.27;100.00;99252.34;5174136;27;20050;-53
2022/08/09 05:23:53;;;;;;;7.75;3.83;;;;;;;25.67;100.00;99290.81;5174694;27;20048;-55
2022/08/09 05:26:19;;;;;;;8.80;3.80;;;;;;;25.78;100.00;99296.75;5174140;27;20128;-54
2022/08/09 05:28:45;;;;;;;4.03;3.45;;;;;;;25.60;100.00;99288.31;5174647;27;20134;-55
2022/08/09 05:31:12;;;;;;;4.55;3.25;;;;;;;25.59;100.00;99289.53;5173926;27;20054;-54
2022/08/09 05:33:38;;;;;;;5.47;3.80;;;;;;;25.94;100.00;99309.75;5174304;27;20078;-54
2022/08/09 05:36:04;;;;;;;7.65;3.58;;;;;;;25.92;100.00;99322.69;5174073;27;20576;-54
2022/08/09 05:38:32;;;;;;;7.35;3.50;;;;;;;25.71;100.00;99313.91;5174098;27;20141;-55
2022/08/09 05:40:58;;;;;;;4.25;3.42;;;;;;;26.00;100.00;99301.50;5174157;27;20053;-54
2022/08/09 05:43:24;;;;;;;6.90;3.60;;;;;;;25.99;100.00;99297.91;5174112;27;20057;-55
2022/08/09 05:45:51;;;;;;;7.22;3.80;;;;;;;26.59;100.00;99312.56;5174058;27;20152;-58
2022/08/09 05:48:17;;;;;;;5.65;3.53;;;;;;;26.68;100.00;99343.50;5173964;27;20046;-56
2022/08/09 05:50:43;;;;;;;5.78;3.53;;;;;;;27.31;100.00;99355.84;5173985;27;20075;-56
2022/08/09 05:53:10;;;;;;;5.82;3.50;;;;;;;27.48;100.00;99412.56;5173806;27;20424;-54
2022/08/09 05:55:37;;;;;;;7.22;3.42;;;;;;;27.28;100.00;99415.13;5173966;27;20145;-55
2022/08/09 05:58:03;;;;;;;7.85;3.22;;;;;;;26.56;100.00;99381.78;5173579;27;20052;-55
2022/08/09 06:00:30;;;;;;;5.25;3.35;;;;;;;27.37;100.00;99434.81;5174012;27;20098;-55
2022/08/09 06:02:57;;;;;;;4.43;2.90;;;;;;;27.44;100.00;99431.66;5173477;27;20423;-56
2022/08/09 06:05:24;;;;;;;7.45;3.35;;;;;;;27.67;100.00;99461.16;5173609;27;20089;-51
2022/08/09 06:07:50;;;;;;;4.18;3.53;;;;;;;27.88;100.00;99481.91;5173539;27;20046;-55
2022/08/09 06:10:16;;;;;;;6.05;3.08;;;;;;;27.99;100.00;99465.28;5173465;27;20066;-57
2022/08/09 06:12:43;;;;;;;6.40;3.10;;;;;;;27.67;100.00;99480.88;5173922;27;20097;-56
2022/08/09 06:15:10;;;;;;;8.35;3.20;;;;;;;28.27;100.00;99496.91;5173438;27;20090;-56
2022/08/09 06:17:36;;;;;;;6.82;3.22;;;;;;;28.25;100.00;99507.88;5173560;27;20054;-56
2022/08/09 06:20:03;;;;;;;8.77;3.03;;;;;;;29.10;100.00;99512.53;5173145;27;20047;-58
2022/08/09 06:22:30;;;;;;;4.55;2.97;;;;;;;29.63;100.00;99554.88;5173388;27;20526;-58
2022/08/09 06:24:56;;;;;;;4.15;3.20;;;;;;;28.75;100.00;99550.53;5173196;27;20062;-58
2022/08/09 06:27:22;;;;;;;6.88;2.67;;;;;;;28.55;100.00;99551.13;5173069;27;20140;-61
2022/08/09 06:29:49;;;;;;;5.55;2.90;;;;;;;28.62;100.00;99524.59;5173274;27;20421;-59
2022/08/09 06:32:16;;;;;;;7.60;3.22;;;;;;;27.23;100.00;99501.00;5173112;27;20450;-56
2022/08/09 06:34:42;;;;;;;5.63;3.22;;;;;;;26.42;100.00;99494.78;5172938;27;20090;-61
2022/08/09 06:37:08;;;;;;;6.07;3.25;;;;;;;25.76;100.00;99461.34;5173014;27;20585;-58
2022/08/09 06:39:35;;;;;;;7.07;3.08;;;;;;;25.12;100.00;99456.13;5173056;27;20050;-54
2022/08/09 06:42:01;;;;;;;4.35;3.20;;;;;;;24.98;100.00;99406.94;5173099;27;20046;-55
2022/08/09 06:44:27;;;;;;;4.78;3.08;;;;;;;25.44;100.00;99403.63;5173000;27;20071;-55
2022/08/09 06:46:54;;;;;;;3.28;2.85;;;;;;;26.31;100.00;99432.63;5173080;27;20054;-56
2022/08/09 06:49:21;;;;;;;6.10;3.17;;;;;;;26.91;100.00;99424.41;5173039;27;20054;-58
2022/08/09 06:51:47;;;;;;;3.63;2.80;;;;;;;27.32;100.00;99477.66;5173068;27;20053;-58
2022/08/09 06:54:13;;;;;;;3.97;2.65;;;;;;;27.69;100.00;99521.41;5172989;27;20094;-55
2022/08/09 06:56:40;;;;;;;3.33;3.03;;;;;;;28.08;100.00;99513.13;5172763;27;20531;-54
2022/08/09 06:59:06;;;;;;;6.55;2.92;;;;;;;28.24;100.00;99526.06;5172783;27;20485;-55
2022/08/09 07:01:32;;;;;;;4.82;3.00;;;;;;;28.03;100.00;99544.78;5172638;27;20046;-61
2022/08/09 07:03:59;;;;;;;5.75;3.13;;;;;;;29.22;100.00;99539.69;5172605;27;20109;-57
2022/08/09 07:06:25;;;;;;;5.13;2.95;;;;;;;29.18;100.00;99567.34;5172648;27;20052;-58
2022/08/09 07:08:51;;;;;;;3.33;3.03;;;;;;;28.82;100.00;99567.13;5172647;27;20516;-56
2022/08/09 07:11:18;;;;;;;7.90;3.00;;;;;;;28.52;100.00;99554.13;5172505;27;20099;-54
2022/08/09 07:13:44;;;;;;;5.35;2.88;;;;;;;28.41;100.00;99554.66;5172416;27;20581;-56
2022/08/09 07:16:10;;;;;;;3.42;2.58;;;;;;;28.40;100.00;99527.72;5172363;27;20509;-53
2022/08/09 07:18:36;;;;;;;5.47;2.90;;;;;;;29.33;100.00;99565.31;5172442;27;20050;-55
2022/08/09 07:21:04;;;;;;;8.35;3.13;;;;;;;29.87;100.00;99553.97;5172350;27;20194;-54
2022/08/09 07:23:30;;;;;;;5.10;2.95;;;;;;;29.54;100.00;99560.56;5172337;27;20370;-56
2022/08/09 07:25:56;;;;;;;7.10;3.22;;;;;;;28.86;100.00;99569.75;5172080;27;20054;-59
2022/08/09 07:28:22;;;;;;;3.20;2.70;;;;;;;29.43;100.00;99566.81;5172256;27;20049;-53
2022/08/09 07:30:49;;;;;;;4.05;2.70;;;;;;;29.48;100.00;99597.19;5171246;27;20046;-57
2022/08/09 07:33:15;;;;;;;3.85;2.63;;;;;;;29.05;100.00;99585.28;5171994;27;20569;-58
2022/08/09 07:35:41;;;;;;;4.38;2.42;;;;;;;29.55;100.00;99573.41;5172210;27;20046;-56
2022/08/09 07:38:08;;;;;;;3.00;2.65;;;;;;;28.19;100.00;99551.28;5171782;27;20098;-58
2022/08/09 07:40:35;;;;;;;3.30;2.67;;;;;;;27.88;100.00;99552.34;5172154;27;20042;-58
2022/08/09 07:43:01;;;;;;;4.05;2.90;;;;;;;28.45;100.00;99560.13;5171862;27;20050;-59
2022/08/09 07:45:28;;;;;;;7.50;2.72;;;;;;;28.93;100.00;99529.09;5171785;27;20129;-54
2022/08/09 07:47:57;;;;;;;3.40;3.10;;;;;;;28.15;100.00;99529.69;5171734;27;20050;-57
2022/08/09 07:50:26;;;;;;;3.58;2.40;;;;;;;29.24;100.00;99551.28;5172015;27;20042;-58
2022/08/09 07:52:53;;;;;;;4.78;2.50;;;;;;;29.50;100.00;99566.41;5171821;27;20050;-55
2022/08/09 07:55:21;;;;;;;6.18;2.65;;;;;;;28.84;100.00;99560.97;5171867;27;20466;-57
2022/08/09 07:57:49;;;;;;;5.13;2.60;;;;;;;29.70;100.00;99579.13;5171709;27;20436;-60
2022/08/09 08:00:16;;;;;;;3.75;2.60;;;;;;;30.33;100.00;99579.69;5171719;27;20088;-60
2022/08/09 08:02:43;;;;;;;3.78;2.35;;;;;;;30.37;100.00;99591.56;5171862;27;20186;-60
2022/08/09 08:05:09;;;;;;;4.15;2.30;;;;;;;29.85;100.00;99582.72;5171759;27;20054;-54
2022/08/09 08:07:36;;;;;;;2.90;2.60;;;;;;;28.60;100.00;99541.22;5171100;27;20072;-53
2022/08/09 08:10:03;;;;;;;8.50;2.60;;;;;;;27.41;100.00;99486.09;5171610;27;20595;-50
2022/08/09 08:12:29;;;;;;;3.85;2.40;;;;;;;26.42;100.00;99463.88;5171700;27;20074;-53
2022/08/09 08:14:56;;;;;;;4.28;2.67;;;;;;;26.59;100.00;99419.41;5171569;27;20050;-52
2022/08/09 08:17:22;;;;;;;5.22;2.72;;;;;;;28.41;100.00;99517.22;5171603;27;20054;-50
2022/08/09 08:19:48;;;;;;;3.45;2.17;;;;;;;28.74;100.00;99528.44;5171487;27;20124;-53
2022/08/09 08:22:15;;;;;;;7.22;2.47;;;;;;;28.80;100.00;99558.34;5171546;27;20106;-53
2022/08/09 08:24:41;;;;;;;1.90;1.80;;;;;;;29.44;100.00;99587.34;5171328;27;20547;-53
2022/08/09 08:27:07;;;;;;;5.40;2.33;;;;;;;30.14;100.00;99615.84;5171256;27;20128;-53
2022/08/09 08:29:34;;;;;;;2.97;2.30;;;;;;;29.99;100.00;99592.44;5171215;27;20077;-53
2022/08/09 08:32:01;;;;;;;5.00;2.30;;;;;;;29.55;100.00;99593.97;5171500;27;20054;-53
2022/08/09 08:34:27;;;;;;;3.15;2.45;;;;;;;29.76;100.00;99582.84;5171234;27;20133;-53
2022/08/09 08:36:53;;;;;;;2.97;2.13;;;;;;;28.68;100.00;99570.63;5171387;27;20133;-50
2022/08/09 08:39:19;;;;;;;3.65;2.50;;;;;;;28.70;100.00;99544.78;5171308;27;20050;-53
2022/08/09 08:41:46;;;;;;;3.85;2.67;;;;;;;28.20;100.00;99530.31;5172075;27;20052;-50
2022/08/09 08:44:13;;;;;;;4.28;2.05;;;;;;;28.04;100.00;99512.53;5174956;27;20133;-52
2022/08/09 08:46:41;;;;;;;2.50;2.30;;;;;;;27.41;100.00;99517.06;5174723;27;20108;-51
2022/08/09 08:49:08;;;;;;;2.67;2.38;;;;;;;27.20;100.00;99480.19;5174854;27;20144;-53
2022/08/09 08:51:35;;;;;;;2.63;2.20;;;;;;;26.69;100.00;99480.03;5174691;27;20160;-53
2022/08/09 08:54:06;;;;;;;4.13;2.70;;;;;;;26.80;100.00;99474.72;5174799;27;20125;-50
2022/08/09 08:56:34;;;;;;;4.40;2.88;;;;;;;26.12;100.00;99449.44;5174373;27;20501;-52
2022/08/09 08:59:02;;;;;;;2.67;2.33;;;;;;;27.11;100.00;99449.22;5174505;27;20110;-50
2022/08/09 09:01:28;;;;;;;3.15;2.17;;;;;;;26.97;100.00;99475.97;5174376;27;20137;-52
2022/08/09 09:03:56;;;;;;;3.17;2.22;;;;;;;26.25;100.00;99441.66;5174398;27;20045;-51
2022/08/09 09:06:24;;;;;;;3.47;2.25;;;;;;;26.20;100.00;99410.63;5174532;27;20417;-54
2022/08/09 09:08:51;;;;;;;3.53;2.60;;;;;;;26.05;100.00;99360.63;5174316;27;20089;-51
2022/08/09 09:11:17;;;;;;;4.20;2.50;;;;;;;25.91;100.00;99382.94;5174337;27;20061;-51
2022/08/09 09:13:46;;;;;;;4.30;2.58;;;;;;;25.84;100.00;99360.75;5174226;27;20060;-52
2022/08/09 09:16:13;;;;;;;3.83;2.38;;;;;;;25.17;100.00;99334.94;5174413;27;20160;-52
2022/08/09 09:18:39;;;;;;;7.22;2.40;;;;;;;25.17;100.00;99292.84;5174201;27;20129;-52
2022/08/09 09:21:07;;;;;;;5.90;2.65;;;;;;;23.82;100.00;99246.16;5174249;27;20128;-53
2022/08/09 09:23:41;;;;;;;3.97;2.50;;;;;;;23.99;100.00;99223.56;5174079;27;20042;-52
2022/08/09 09:26:08;;;;;;;3.13;2.55;;;;;;;24.41;100.00;99247.25;5174110;27;20046;-53
2022/08/09 09:28:35;;;;;;;15.18;2.63;;;;;;;23.46;100.00;99201.81;5174364;27;20245;-53
2022/08/09 09:31:04;;;;;;;8.63;2.78;;;;;;;23.99;100.00;99203.97;5174274;27;20069;-49
2022/08/09 09:33:33;;;;;;;5.15;2.45;;;;;;;23.57;100.00;99204.25;5174617;27;20819;-52
2022/08/09 09:36:01;;;;;;;5.10;2.90;;;;;;;23.66;100.00;99190.34;5174006;27;20054;-50
2022/08/09 09:38:43;;;;;;;3.05;2.63;;;;;;;24.11;100.00;99197.53;5174087;27;20042;-49
2022/08/09 09:41:10;;;;;;;4.65;2.17;;;;;;;24.37;100.00;99243.00;5173633;27;20046;-49
2022/08/09 09:43:37;;;;;;;4.88;2.35;;;;;;;23.87;100.00;99251.19;5173996;27;20051;-52
2022/08/09 09:46:04;;;;;;;2.30;2.10;;;;;;;23.79;100.00;99229.47;5173575;27;20064;-49
2022/08/09 09:48:30;;;;;;;2.63;2.30;;;;;;;23.59;100.00;99247.34;5173688;27;20085;-50
2022/08/09 09:50:56;;;;;;;2.72;2.30;;;;;;;23.45;100.00;99189.03;5173981;27;20046;-52
2022/08/09 09:53:24;;;;;;;5.35;2.20;;;;;;;23.27;100.00;99172.88;5173326;27;20057;-53
2022/08/09 09:55:53;;;;;;;5.15;1.95;;;;;;;23.58;100.00;99194.59;5173868;27;20062;-54
2022/08/09 09:58:20;;;;;;;3.55;2.15;;;;;;;23.45;100.00;99203.03;5173575;27;20477;-53
2022/08/09 10:00:48;;;;;;;1.70;1.60;;;;;;;23.58;100.00;99223.34;5173574;27;20473;-51
2022/08/09 10:03:15;;;;;;;4.68;1.88;;;;;;;23.89;100.00;99262.72;5173377;27;20046;-49
2022/08/09 10:05:57;;;;;;;1.95;1.85;;;;;;;24.22;100.00;99326.75;5173637;27;20046;-52
2022/08/09 10:08:23;;;;;;;1.55;1.48;;;;;;;24.58;100.00;99420.81;5173272;27;20071;-49
2022/08/09 10:10:49;;;;;;;1.88;1.50;;;;;;;25.02;100.00;99454.47;5173269;27;20420;-52
2022/08/09 10:13:17;;;;;;;2.22;1.65;;;;;;;25.02;100.00;99448.88;5173282;27;20042;-52
2022/08/09 10:15:48;;;;;;;2.10;1.50;;;;;;;25.62;100.00;99467.50;5173196;27;20053;-51
2022/08/09 10:18:14;;;;;;;2.00;1.90;;;;;;;25.72;100.00;99443.81;5173233;27;20050;-52
2022/08/09 10:20:41;;;;;;;4.25;1.98;;;;;;;25.43;100.00;99432.97;5173234;27;20464;-51
2022/08/09 10:23:15;;;;;;;5.65;1.80;;;;;;;25.78;100.00;99479.28;5172967;27;20201;-53
2022/08/09 10:25:43;;;;;;;2.25;1.65;;;;;;;25.69;100.00;99467.22;5172717;27;20054;-53
2022/08/09 10:28:10;;;;;;;1.58;1.40;;;;;;;25.43;100.00;99472.25;5172896;27;20049;-51
2022/08/09 10:30:37;;;;;;;5.35;1.88;;;;;;;26.06;100.00;99496.28;5172787;27;20050;-52
2022/08/09 10:33:04;;;;;;;1.98;1.88;;;;;;;25.58;100.00;99447.97;5173237;27;20050;-51
2022/08/09 10:35:30;;;;;;;2.58;1.92;;;;;;;26.14;100.00;99477.88;5172823;27;20092;-50
2022/08/09 10:37:59;;;;;;;4.57;1.92;;;;;;;25.58;100.00;99490.88;5172858;27;20513;-52
2022/08/09 10:40:26;;;;;;;2.13;1.70;;;;;;;25.57;100.00;99474.50;5172827;27;20050;-52
2022/08/09 10:42:52;;;;;;;5.82;1.95;;;;;;;25.11;100.00;99432.09;5172710;27;20089;-51
2022/08/09 10:45:21;;;;;;;1.95;1.70;;;;;;;24.92;100.00;99439.59;5173073;27;20046;-51
2022/08/09 10:48:00;;;;;;;4.45;1.90;;;;;;;24.83;100.00;99372.25;5172768;27;20174;-53
2022/08/09 10:51:05;;;;;;;4.50;2.20;;;;;;;24.38;100.00;99370.63;5172839;27;20517;-51
2022/08/09 10:53:37;;;;;;;2.92;1.88;;;;;;;24.54;100.00;99392.91;5172422;27;20042;-50
2022/08/09 10:56:19;;;;;;;2.28;1.80;;;;;;;24.57;100.00;99371.59;5172782;27;20053;-49
2022/08/09 10:58:45;;;;;;;4.72;1.95;;;;;;;24.54;100.00;99403.34;5172682;27;20507;-51
2022/08/09 11:01:38;;;;;;;5.57;2.00;;;;;;;24.27;100.00;99399.03;5172129;27;20156;-54
2022/08/09 11:04:12;;;;;;;3.28;1.90;;;;;;;23.88;100.00;99356.31;5171882;27;20068;-52
2022/08/09 11:06:40;;;;;;;3.33;2.05;;;;;;;23.84;100.00;99358.47;5172224;27;20042;-51
2022/08/09 11:09:08;;;;;;;1.67;1.50;;;;;;;24.18;100.00;99368.91;5172662;27;20050;-53
2022/08/09 11:12:07;;;;;;;2.45;2.00;;;;;;;24.52;100.00;99296.50;5172353;27;20050;-53
2022/08/09 11:14:35;;;;;;;5.32;2.20;;;;;;;24.08;100.00;99316.84;5172335;27;20054;-51
2022/08/09 11:17:01;;;;;;;3.58;2.20;;;;;;;24.35;100.00;99310.69;5172164;27;20058;-54
2022/08/09 11:19:54;;;;;;;2.28;2.08;;;;;;;24.35;100.00;99299.47;5172197;27;20495;-50
2022/08/09 11:22:21;;;;;;;2.67;1.90;;;;;;;24.21;100.00;99296.41;5172741;27;20057;-50
2022/08/09 11:25:07;;;;;;;5.43;2.00;;;;;;;24.14;100.00;99340.25;5172232;27;20098;-49
2022/08/09 11:27:37;;;;;;;4.38;1.95;;;;;;;23.91;100.00;99330.22;5172311;27;20088;-53
2022/08/09 11:30:05;;;;;;;3.42;2.10;;;;;;;24.28;100.00;99302.53;5172477;27;20042;-50